Time;durP1;ratioP1;P1;durP2;ratioP2;P2;SDS_P1;SDS_P2;PMS_P1;PMS_P2;Temp;Humidity;BMP_temperature;BMP_pressure;BME280_temperature;BME280_humidity;BME280_pressure;Samples;Min_cycle;Max_cycle;Signal;HPM_P1;HPM_P2
2021/10/15 00:02:17;;;;;;;17.85;11.73;;;10.90;86.60;;;;;;5004989;28;20061;-83
2021/10/15 00:04:43;;;;;;;17.63;11.98;;;10.90;86.60;;;;;;5007550;28;20041;-83
2021/10/15 00:07:09;;;;;;;16.67;12.20;;;11.00;86.70;;;;;;4987276;28;20489;-83
2021/10/15 00:09:35;;;;;;;18.17;12.02;;;11.00;86.70;;;;;;4986308;28;20049;-83
2021/10/15 00:12:00;;;;;;;14.85;12.02;;;11.00;86.70;;;;;;4986244;28;20018;-83
2021/10/15 00:14:26;;;;;;;17.65;12.40;;;11.00;86.70;;;;;;4983071;28;20034;-84
2021/10/15 00:16:53;;;;;;;17.88;11.90;;;11.00;86.80;;;;;;4993650;28;20042;-84
2021/10/15 00:19:19;;;;;;;16.48;11.82;;;11.10;86.70;;;;;;4988477;28;20377;-84
2021/10/15 00:21:45;;;;;;;15.23;11.27;;;11.10;86.70;;;;;;4986139;28;20030;-83
2021/10/15 00:24:10;;;;;;;14.82;11.20;;;11.10;86.60;;;;;;4992889;28;20050;-85
2021/10/15 00:26:36;;;;;;;19.83;12.68;;;11.10;86.60;;;;;;4992145;28;20100;-83
2021/10/15 00:29:05;;;;;;;16.55;12.10;;;11.10;86.60;;;;;;5002083;28;20038;-84
2021/10/15 00:31:31;;;;;;;18.90;12.18;;;11.10;86.80;;;;;;4991918;28;20497;-83
2021/10/15 00:33:56;;;;;;;17.20;11.25;;;11.10;86.80;;;;;;4990937;28;20035;-84
2021/10/15 00:36:22;;;;;;;18.05;10.85;;;11.10;86.80;;;;;;4988805;28;20049;-84
2021/10/15 00:38:48;;;;;;;14.88;11.23;;;11.20;86.80;;;;;;4990697;28;20413;-84
2021/10/15 00:41:13;;;;;;;16.55;11.52;;;11.20;86.90;;;;;;4998897;28;20042;-85
2021/10/15 00:44:00;;;;;;;13.63;9.50;;;11.20;87.00;;;;;;4985403;28;20612;-83
2021/10/15 00:46:26;;;;;;;14.85;10.10;;;11.20;87.00;;;;;;4988879;28;20475;-85
2021/10/15 00:48:52;;;;;;;14.07;10.27;;;11.30;87.10;;;;;;4990741;28;20029;-83
2021/10/15 00:51:18;;;;;;;15.68;10.10;;;11.30;87.00;;;;;;4993048;28;20038;-84
2021/10/15 00:53:44;;;;;;;16.17;10.23;;;11.30;87.10;;;;;;4984766;28;20125;-84
2021/10/15 00:56:10;;;;;;;16.73;10.38;;;11.40;87.10;;;;;;4986746;28;20118;-85
2021/10/15 00:58:35;;;;;;;18.58;10.68;;;11.40;87.10;;;;;;4989904;28;20041;-83
2021/10/15 01:01:01;;;;;;;16.48;10.25;;;11.40;87.10;;;;;;4994076;28;20026;-85
2021/10/15 01:03:28;;;;;;;13.40;9.20;;;11.40;87.00;;;;;;4990435;28;20038;-87
2021/10/15 01:05:53;;;;;;;16.55;9.60;;;11.40;87.00;;;;;;5001576;28;20033;-88
2021/10/15 01:08:19;;;;;;;14.63;9.52;;;11.40;87.00;;;;;;5006089;28;20035;-88
2021/10/15 01:10:45;;;;;;;13.65;9.55;;;11.50;87.00;;;;;;5013270;28;20022;-86
2021/10/15 01:13:12;;;;;;;14.52;8.45;;;11.50;87.00;;;;;;5011699;28;20049;-85
2021/10/15 01:15:37;;;;;;;14.27;8.90;;;11.50;87.10;;;;;;5007031;28;20046;-84
2021/10/15 01:18:10;;;;;;;12.45;8.40;;;11.50;87.00;;;;;;4987914;28;20031;-83
2021/10/15 01:20:36;;;;;;;15.38;9.48;;;11.60;86.90;;;;;;4993593;28;20046;-84
2021/10/15 01:23:02;;;;;;;14.88;8.98;;;11.60;87.00;;;;;;4990882;28;20117;-83
2021/10/15 01:25:33;;;;;;;13.40;9.02;;;11.60;87.00;;;;;;4991482;28;20068;-84
2021/10/15 01:27:59;;;;;;;12.10;8.45;;;11.60;87.10;;;;;;5004030;28;20045;-83
2021/10/15 01:30:25;;;;;;;14.50;8.27;;;11.60;87.10;;;;;;4990913;28;20034;-84
2021/10/15 01:32:50;;;;;;;12.93;8.25;;;11.60;87.20;;;;;;4988375;28;20026;-84
2021/10/15 01:35:16;;;;;;;11.95;7.40;;;11.70;87.20;;;;;;5001186;28;20034;-84
2021/10/15 01:37:42;;;;;;;11.60;7.72;;;11.70;87.20;;;;;;4987478;28;20408;-83
2021/10/15 01:40:08;;;;;;;10.98;7.18;;;11.70;87.10;;;;;;4991171;28;20042;-84
2021/10/15 01:45:18;;;;;;;11.03;7.40;;;11.80;87.00;;;;;;4996119;28;20056;-84
2021/10/15 01:47:44;;;;;;;15.10;6.93;;;11.80;87.00;;;;;;4985423;28;20753;-83
2021/10/15 01:50:10;;;;;;;12.35;6.90;;;11.80;86.90;;;;;;4987441;28;20046;-84
2021/10/15 01:52:37;;;;;;;13.25;7.47;;;11.90;87.00;;;;;;4988730;28;20117;-84
2021/10/15 01:55:05;;;;;;;12.00;7.55;;;11.90;86.90;;;;;;4988253;28;20038;-85
2021/10/15 01:57:30;;;;;;;12.23;7.22;;;12.00;86.70;;;;;;4989828;28;20114;-84
2021/10/15 01:59:56;;;;;;;12.55;7.38;;;12.00;86.70;;;;;;4987862;28;20135;-83
2021/10/15 02:02:22;;;;;;;11.98;7.50;;;12.00;86.70;;;;;;4981609;28;20126;-84
2021/10/15 02:04:47;;;;;;;10.45;7.05;;;12.00;86.60;;;;;;4988584;28;20042;-84
2021/10/15 02:07:13;;;;;;;10.60;7.00;;;12.10;86.60;;;;;;4989689;28;20076;-83
2021/10/15 02:09:39;;;;;;;13.10;7.13;;;12.10;86.70;;;;;;4989294;28;20045;-84
2021/10/15 02:12:05;;;;;;;13.10;7.65;;;12.10;86.60;;;;;;4985147;28;20050;-83
2021/10/15 02:14:31;;;;;;;11.73;7.78;;;12.10;86.50;;;;;;4987368;28;20046;-85
2021/10/15 02:16:57;;;;;;;12.45;7.30;;;12.10;86.70;;;;;;4978685;28;20038;-82
2021/10/15 02:19:23;;;;;;;12.90;7.70;;;12.10;86.60;;;;;;4992417;28;20528;-84
2021/10/15 02:21:48;;;;;;;13.57;8.10;;;12.20;86.40;;;;;;4989900;28;20121;-83
2021/10/15 02:24:14;;;;;;;11.32;7.38;;;12.20;86.40;;;;;;4990022;28;20500;-84
2021/10/15 02:26:40;;;;;;;13.60;8.10;;;12.10;86.40;;;;;;4989547;28;20117;-83
2021/10/15 02:29:05;;;;;;;11.20;7.80;;;12.20;86.50;;;;;;4996749;28;20520;-83
2021/10/15 02:31:31;;;;;;;12.40;7.03;;;12.20;86.50;;;;;;5004871;28;20380;-84
2021/10/15 02:33:57;;;;;;;16.88;8.15;;;12.20;86.50;;;;;;4986549;28;20457;-84
2021/10/15 02:36:23;;;;;;;15.38;7.88;;;12.20;86.50;;;;;;4992728;28;20035;-84
2021/10/15 02:38:48;;;;;;;18.20;7.60;;;12.20;86.60;;;;;;4999555;28;20137;-84
2021/10/15 02:41:14;;;;;;;12.90;7.95;;;12.20;86.60;;;;;;4990450;28;20057;-83
2021/10/15 02:43:40;;;;;;;13.77;8.20;;;12.20;86.70;;;;;;4995626;28;20125;-84
2021/10/15 02:46:05;;;;;;;14.38;8.18;;;12.20;86.70;;;;;;4993333;28;20116;-84
2021/10/15 02:48:31;;;;;;;16.63;7.88;;;12.20;86.70;;;;;;4987231;28;20046;-84
2021/10/15 02:50:57;;;;;;;15.18;7.50;;;12.30;86.50;;;;;;4998183;28;20030;-85
2021/10/15 02:53:23;;;;;;;11.38;7.43;;;12.30;86.50;;;;;;4992884;28;20122;-84
2021/10/15 02:55:48;;;;;;;12.60;7.80;;;12.30;86.70;;;;;;4994572;28;20028;-83
2021/10/15 02:58:14;;;;;;;13.05;8.00;;;12.20;86.80;;;;;;4992845;28;20058;-86
2021/10/15 03:00:40;;;;;;;15.65;9.07;;;12.20;86.70;;;;;;4992785;28;20073;-85
2021/10/15 03:03:05;;;;;;;15.57;8.60;;;12.30;86.70;;;;;;4983056;28;20042;-84
2021/10/15 03:05:31;;;;;;;15.35;8.88;;;12.30;86.80;;;;;;4989003;28;20038;-84
2021/10/15 03:07:57;;;;;;;13.57;8.38;;;12.30;86.80;;;;;;4991105;28;20471;-84
2021/10/15 03:10:23;;;;;;;15.20;9.27;;;12.30;86.80;;;;;;4989054;28;20046;-85
2021/10/15 03:12:48;;;;;;;18.40;9.48;;;12.30;87.00;;;;;;4988104;28;20038;-84
2021/10/15 03:15:14;;;;;;;13.82;8.82;;;12.30;87.00;;;;;;4993169;28;20374;-84
2021/10/15 03:17:40;;;;;;;13.88;9.65;;;12.30;87.00;;;;;;4990790;28;20436;-85
2021/10/15 03:20:06;;;;;;;12.85;8.43;;;12.40;87.00;;;;;;4995947;28;20030;-84
2021/10/15 03:22:32;;;;;;;13.45;9.38;;;12.40;86.90;;;;;;4990319;28;20462;-84
2021/10/15 03:24:58;;;;;;;16.35;8.85;;;12.40;86.90;;;;;;4991854;28;20061;-87
2021/10/15 03:27:24;;;;;;;14.65;9.10;;;12.40;86.80;;;;;;4990242;28;20057;-84
2021/10/15 03:29:49;;;;;;;15.32;9.55;;;12.40;86.90;;;;;;4997066;28;20042;-84
2021/10/15 03:32:15;;;;;;;16.45;9.68;;;12.40;86.80;;;;;;4985650;28;20381;-83
2021/10/15 03:34:41;;;;;;;13.05;8.65;;;12.50;86.60;;;;;;5004852;28;20437;-83
2021/10/15 03:37:07;;;;;;;13.23;9.10;;;12.40;86.50;;;;;;4996372;28;20042;-84
2021/10/15 03:39:32;;;;;;;13.23;8.95;;;12.40;86.50;;;;;;4993167;28;20038;-83
2021/10/15 03:41:58;;;;;;;13.20;9.35;;;12.40;86.40;;;;;;4994306;28;20060;-85
2021/10/15 03:44:24;;;;;;;14.15;8.73;;;12.40;86.60;;;;;;4998723;28;20042;-83
2021/10/15 03:46:49;;;;;;;15.02;9.60;;;12.40;86.60;;;;;;4996915;28;20034;-84
2021/10/15 03:49:15;;;;;;;14.43;8.95;;;12.40;86.80;;;;;;4988229;28;20038;-83
2021/10/15 03:51:41;;;;;;;13.95;9.40;;;12.40;86.80;;;;;;4993720;28;20037;-85
2021/10/15 03:54:07;;;;;;;15.27;9.82;;;12.40;86.90;;;;;;4986148;28;20055;-84
2021/10/15 03:56:32;;;;;;;16.00;9.90;;;12.30;86.90;;;;;;4986468;28;20088;-84
2021/10/15 03:58:58;;;;;;;14.27;9.70;;;12.30;87.00;;;;;;4994044;28;20062;-86
2021/10/15 04:01:24;;;;;;;13.45;9.30;;;12.40;86.80;;;;;;4988863;28;20042;-84
2021/10/15 04:03:50;;;;;;;14.63;9.60;;;12.60;86.30;;;;;;4991749;28;20035;-85
2021/10/15 04:06:15;;;;;;;14.85;10.27;;;12.70;85.90;;;;;;4990057;28;20042;-85
2021/10/15 04:08:41;;;;;;;12.75;9.52;;;12.60;86.10;;;;;;4992613;28;20076;-85
2021/10/15 04:11:07;;;;;;;15.27;10.40;;;12.70;85.80;;;;;;4984799;28;20042;-84
2021/10/15 04:13:33;;;;;;;20.17;11.07;;;12.80;85.60;;;;;;4997706;28;20046;-84
2021/10/15 04:16:01;;;;;;;15.02;9.90;;;12.80;85.40;;;;;;4983402;28;20038;-85
2021/10/15 04:18:28;;;;;;;16.48;10.05;;;12.80;85.40;;;;;;4989672;28;20066;-85
2021/10/15 04:20:54;;;;;;;15.68;9.82;;;12.80;85.40;;;;;;4987735;28;20042;-84
2021/10/15 04:23:19;;;;;;;15.27;10.02;;;12.80;85.40;;;;;;4980915;28;20449;-84
2021/10/15 04:25:45;;;;;;;16.88;10.15;;;12.80;85.40;;;;;;4990093;28;20046;-84
2021/10/15 04:28:11;;;;;;;17.58;9.80;;;12.80;85.60;;;;;;4986706;28;20274;-86
2021/10/15 04:30:37;;;;;;;13.95;9.32;;;12.80;85.50;;;;;;4987843;28;20140;-83
2021/10/15 04:33:03;;;;;;;18.50;9.73;;;12.80;85.50;;;;;;4991773;28;20050;-84
2021/10/15 04:35:29;;;;;;;16.70;10.55;;;12.80;85.40;;;;;;4985449;28;20045;-84
2021/10/15 04:37:54;;;;;;;15.27;10.45;;;12.80;85.30;;;;;;4984080;28;20120;-85
2021/10/15 04:40:21;;;;;;;15.95;9.88;;;12.80;85.30;;;;;;4989993;28;20049;-83
2021/10/15 04:42:46;;;;;;;15.30;9.40;;;12.90;85.30;;;;;;4989096;28;20493;-85
2021/10/15 04:45:12;;;;;;;17.02;10.40;;;12.90;85.40;;;;;;4988872;28;20035;-82
2021/10/15 04:47:39;;;;;;;16.27;11.43;;;12.80;85.40;;;;;;4987719;28;20034;-83
2021/10/15 04:50:06;;;;;;;16.23;9.88;;;12.80;85.40;;;;;;4992752;28;20039;-83
2021/10/15 04:52:31;;;;;;;19.08;11.05;;;12.90;85.30;;;;;;4992939;28;20038;-84
2021/10/15 04:54:57;;;;;;;16.02;10.02;;;12.90;85.20;;;;;;4994053;28;20029;-83
2021/10/15 04:57:23;;;;;;;19.48;11.27;;;12.90;85.20;;;;;;4990734;28;20473;-83
2021/10/15 04:59:49;;;;;;;19.15;11.13;;;12.90;85.40;;;;;;4985473;28;20040;-83
2021/10/15 05:02:14;;;;;;;18.50;11.85;;;12.90;85.40;;;;;;4989860;28;20118;-83
2021/10/15 05:04:41;;;;;;;17.92;11.18;;;12.80;85.50;;;;;;4984162;28;20090;-83
2021/10/15 05:07:07;;;;;;;18.00;11.65;;;12.80;85.70;;;;;;4983974;28;20070;-85
2021/10/15 05:09:33;;;;;;;21.92;12.80;;;12.80;85.70;;;;;;4989421;28;20120;-84
2021/10/15 05:12:01;;;;;;;18.95;13.48;;;12.80;85.80;;;;;;4985318;28;20053;-84
2021/10/15 05:14:27;;;;;;;19.90;12.95;;;12.90;85.80;;;;;;4987434;28;20045;-84
2021/10/15 05:16:54;;;;;;;18.45;12.52;;;12.60;86.50;;;;;;4986567;28;20055;-86
2021/10/15 05:19:20;;;;;;;18.75;12.98;;;12.50;87.00;;;;;;4989649;28;20449;-84
2021/10/15 05:21:46;;;;;;;21.88;12.55;;;12.40;87.40;;;;;;4983279;28;20049;-87
2021/10/15 05:24:12;;;;;;;22.35;12.68;;;12.40;87.50;;;;;;4992601;28;21351;-84
2021/10/15 05:26:38;;;;;;;19.55;13.82;;;12.40;87.60;;;;;;4986480;28;20042;-84
2021/10/15 05:29:03;;;;;;;17.25;12.02;;;12.40;87.60;;;;;;4990824;28;20085;-84
2021/10/15 05:31:29;;;;;;;18.45;12.18;;;12.40;87.70;;;;;;4986461;28;20049;-84
2021/10/15 05:33:55;;;;;;;17.95;12.52;;;12.60;87.30;;;;;;4987286;28;20166;-83
2021/10/15 05:36:21;;;;;;;19.23;12.35;;;12.80;86.70;;;;;;4985614;28;20496;-83
2021/10/15 05:38:46;;;;;;;16.73;12.75;;;12.80;86.30;;;;;;4999651;28;20520;-83
2021/10/15 05:41:13;;;;;;;18.63;12.98;;;12.90;86.20;;;;;;4985257;28;20046;-83
2021/10/15 05:43:39;;;;;;;17.67;12.30;;;12.90;86.20;;;;;;4991332;28;20038;-83
2021/10/15 05:46:05;;;;;;;18.98;12.98;;;12.90;86.10;;;;;;4987068;28;20034;-86
2021/10/15 05:48:30;;;;;;;15.63;12.13;;;12.90;86.10;;;;;;4998343;28;20479;-81
2021/10/15 05:50:56;;;;;;;22.48;14.40;;;12.90;86.10;;;;;;5000675;28;20027;-82
2021/10/15 05:53:23;;;;;;;20.65;14.00;;;12.90;86.30;;;;;;4984492;28;20133;-83
2021/10/15 06:01:08;;;;;;;20.63;14.25;;;13.00;86.30;;;;;;4985989;28;20088;-84
2021/10/15 06:03:34;;;;;;;20.02;12.95;;;13.00;86.30;;;;;;4986200;28;20039;-84
2021/10/15 06:14:20;;;;;;;21.52;14.43;;;12.90;86.10;;;;;;4987310;28;20649;-84
2021/10/15 06:16:50;;;;;;;20.20;15.57;;;12.90;86.20;;;;;;5005104;28;20034;-84
2021/10/15 06:19:19;;;;;;;23.77;14.73;;;12.90;86.30;;;;;;4992510;28;20032;-84
2021/10/15 06:21:44;;;;;;;19.63;15.55;;;12.90;86.30;;;;;;4994790;28;20088;-84
2021/10/15 06:24:10;;;;;;;22.85;16.33;;;12.90;86.20;;;;;;4979441;28;20034;-85
2021/10/15 06:26:36;;;;;;;22.10;15.85;;;13.00;86.20;;;;;;4984746;28;20043;-83
2021/10/15 06:29:02;;;;;;;21.58;15.60;;;13.00;86.20;;;;;;4991066;28;20061;-85
2021/10/15 06:31:31;;;;;;;25.15;15.80;;;13.00;86.20;;;;;;5000023;28;20043;-85
2021/10/15 06:33:58;;;;;;;24.15;15.35;;;12.90;86.20;;;;;;4987779;28;20042;-83
2021/10/15 06:36:24;;;;;;;21.77;15.40;;;13.00;86.30;;;;;;4991208;28;20030;-85
2021/10/15 06:38:49;;;;;;;22.95;15.98;;;13.00;86.30;;;;;;4987871;28;20406;-84
2021/10/15 06:41:15;;;;;;;22.38;16.17;;;13.00;86.30;;;;;;4985948;28;20034;-83
2021/10/15 06:43:41;;;;;;;23.02;16.92;;;13.00;86.20;;;;;;4991993;28;20441;-85
2021/10/15 06:46:07;;;;;;;26.23;15.75;;;13.00;86.10;;;;;;5001093;28;20042;-84
2021/10/15 06:48:33;;;;;;;26.33;16.30;;;13.10;86.10;;;;;;4987701;28;20686;-85
2021/10/15 06:50:59;;;;;;;21.95;15.30;;;13.10;86.20;;;;;;4985448;28;20081;-85
2021/10/15 06:53:25;;;;;;;24.30;16.48;;;13.10;86.30;;;;;;4985734;28;20030;-85
2021/10/15 06:55:51;;;;;;;23.73;17.40;;;13.10;86.20;;;;;;5002683;28;20122;-84
2021/10/15 06:58:17;;;;;;;20.80;15.57;;;13.10;86.30;;;;;;4991117;28;20054;-83
2021/10/15 07:00:43;;;;;;;21.58;15.32;;;13.10;86.20;;;;;;4986586;28;20065;-85
2021/10/15 07:03:14;;;;;;;22.58;15.40;;;13.10;86.10;;;;;;4989007;28;20122;-84
2021/10/15 07:05:40;;;;;;;21.88;15.63;;;13.20;86.00;;;;;;4990943;28;20061;-84
2021/10/15 07:08:05;;;;;;;23.25;15.60;;;13.20;86.00;;;;;;4980785;28;20390;-83
2021/10/15 07:10:31;;;;;;;24.25;15.35;;;13.20;85.90;;;;;;4990236;28;20045;-85
2021/10/15 07:12:57;;;;;;;21.60;15.45;;;13.30;85.80;;;;;;4989044;28;20030;-84
2021/10/15 07:15:22;;;;;;;22.88;15.18;;;13.40;85.70;;;;;;4983144;28;20038;-83
2021/10/15 07:17:48;;;;;;;21.52;15.23;;;13.40;85.50;;;;;;4989048;28;20031;-84
2021/10/15 07:20:14;;;;;;;20.08;14.35;;;13.30;85.50;;;;;;4991208;28;20038;-84
2021/10/15 07:22:39;;;;;;;23.27;15.63;;;13.40;85.40;;;;;;4988511;28;20121;-84
2021/10/15 07:25:06;;;;;;;22.15;15.45;;;13.40;85.30;;;;;;4982096;28;20065;-84
2021/10/15 07:27:32;;;;;;;25.75;15.98;;;13.40;85.40;;;;;;4989219;28;20038;-85
2021/10/15 07:29:57;;;;;;;23.50;15.30;;;13.40;85.50;;;;;;4994726;28;20046;-82
2021/10/15 07:32:23;;;;;;;24.52;15.88;;;13.40;85.50;;;;;;4992424;28;20439;-82
2021/10/15 07:34:49;;;;;;;20.05;15.68;;;13.50;85.50;;;;;;4990702;28;20516;-83
2021/10/15 07:37:15;;;;;;;21.60;15.23;;;13.50;85.40;;;;;;4992372;28;20026;-83
2021/10/15 07:39:42;;;;;;;23.80;15.10;;;13.60;85.50;;;;;;4991957;28;20031;-82
2021/10/15 07:42:08;;;;;;;21.85;15.45;;;13.60;85.40;;;;;;4976415;28;20447;-84
2021/10/15 07:44:34;;;;;;;21.80;16.40;;;13.60;85.40;;;;;;4989794;28;20130;-84
2021/10/15 07:47:00;;;;;;;21.05;15.65;;;13.60;85.40;;;;;;4992243;28;20065;-85
2021/10/15 07:49:25;;;;;;;24.77;14.98;;;13.70;85.20;;;;;;4992059;28;20481;-85
2021/10/15 07:51:52;;;;;;;22.92;15.90;;;13.70;85.20;;;;;;5000609;28;20018;-83
2021/10/15 07:54:18;;;;;;;23.85;16.55;;;13.80;84.80;;;;;;5015934;28;20044;-83
2021/10/15 07:56:44;;;;;;;24.75;16.25;;;13.90;84.70;;;;;;5009780;28;20098;-88
2021/10/15 07:59:09;;;;;;;22.77;15.88;;;14.00;84.80;;;;;;5011686;28;20019;-85
2021/10/15 08:01:35;;;;;;;25.73;16.00;;;14.00;84.60;;;;;;5014879;28;20094;-84
2021/10/15 08:04:00;;;;;;;24.38;16.08;;;14.10;84.50;;;;;;4994261;28;20031;-85
2021/10/15 08:06:26;;;;;;;24.98;16.10;;;14.10;84.20;;;;;;4994714;28;20113;-82
2021/10/15 08:08:52;;;;;;;20.73;13.82;;;14.10;84.10;;;;;;4994847;28;20047;-84
2021/10/15 08:11:19;;;;;;;25.63;15.48;;;14.10;84.40;;;;;;4985250;28;20467;-85
2021/10/15 08:13:45;;;;;;;23.60;14.90;;;14.10;84.40;;;;;;4988619;28;20034;-85
2021/10/15 08:16:11;;;;;;;22.20;15.75;;;14.00;84.60;;;;;;4984899;28;20042;-84
2021/10/15 08:18:37;;;;;;;26.90;17.13;;;14.00;84.60;;;;;;4990444;28;20034;-84
2021/10/15 08:21:02;;;;;;;26.13;16.00;;;14.10;84.80;;;;;;4985281;28;20046;-84
2021/10/15 08:23:29;;;;;;;23.40;15.55;;;14.10;84.80;;;;;;4988492;28;20045;-86
2021/10/15 08:25:57;;;;;;;23.20;15.80;;;14.00;85.30;;;;;;4991820;28;20042;-84
2021/10/15 08:28:23;;;;;;;21.20;16.20;;;14.10;85.80;;;;;;5003221;28;20383;-83
2021/10/15 08:30:49;;;;;;;23.13;16.17;;;14.00;86.10;;;;;;4996934;28;20068;-85
2021/10/15 08:33:14;;;;;;;25.55;16.70;;;14.00;86.50;;;;;;4975739;28;20038;-85
2021/10/15 08:35:40;;;;;;;20.58;15.32;;;14.00;86.60;;;;;;5011200;28;20037;-85
2021/10/15 08:38:06;;;;;;;21.00;15.80;;;13.90;86.60;;;;;;4985835;28;20086;-85
2021/10/15 08:40:31;;;;;;;21.58;15.48;;;13.90;86.90;;;;;;4988840;28;20039;-84
2021/10/15 08:42:58;;;;;;;24.55;16.35;;;14.00;87.10;;;;;;4988364;28;20050;-85
2021/10/15 08:45:29;;;;;;;23.38;16.42;;;14.10;87.20;;;;;;5002210;28;20038;-86
2021/10/15 08:47:55;;;;;;;27.45;16.23;;;14.10;87.10;;;;;;4987393;28;20046;-85
2021/10/15 08:50:22;;;;;;;21.65;15.70;;;14.10;87.00;;;;;;4988488;28;20563;-85
2021/10/15 08:52:48;;;;;;;22.52;16.88;;;14.10;87.00;;;;;;4989050;28;20038;-85
2021/10/15 08:55:14;;;;;;;25.05;17.27;;;14.10;87.00;;;;;;4990416;28;20027;-85
2021/10/15 08:57:50;;;;;;;27.38;18.83;;;14.10;87.20;;;;;;4982908;28;20054;-84
2021/10/15 09:00:35;;;;;;;27.15;18.55;;;14.10;87.40;;;;;;4984281;28;20026;-85
2021/10/15 09:03:22;;;;;;;28.13;18.98;;;14.00;87.50;;;;;;4984162;28;20100;-85
2021/10/15 09:06:04;;;;;;;24.50;18.13;;;14.00;87.80;;;;;;4998301;28;20507;-85
2021/10/15 09:08:55;;;;;;;28.77;18.65;;;13.90;88.10;;;;;;4988937;28;20073;-84
2021/10/15 09:11:28;;;;;;;26.33;17.60;;;13.80;88.30;;;;;;4986358;28;20034;-85
2021/10/15 09:14:09;;;;;;;22.50;17.17;;;13.90;88.40;;;;;;4989669;28;20117;-84
2021/10/15 09:16:56;;;;;;;25.40;17.83;;;14.00;88.70;;;;;;4967132;28;20035;-84
2021/10/15 09:19:25;;;;;;;27.05;18.08;;;14.00;88.80;;;;;;4965723;28;20049;-83
2021/10/15 09:22:12;;;;;;;25.50;17.75;;;14.00;88.70;;;;;;4969656;28;20113;-86
2021/10/15 09:24:46;;;;;;;24.73;18.35;;;14.00;88.80;;;;;;4962392;28;20046;-84
2021/10/15 09:27:36;;;;;;;25.73;19.00;;;14.10;88.80;;;;;;4988367;28;20035;-85
2021/10/15 09:30:09;;;;;;;24.75;19.00;;;14.10;88.80;;;;;;4988171;28;20042;-85
2021/10/15 09:32:37;;;;;;;25.80;19.35;;;14.10;89.00;;;;;;4995774;28;20486;-85
2021/10/15 09:35:04;;;;;;;23.02;18.45;;;14.20;88.90;;;;;;4985255;28;20057;-84
2021/10/15 09:37:33;;;;;;;24.45;17.33;;;14.20;88.60;;;;;;4981376;28;20497;-84
2021/10/15 09:40:05;;;;;;;28.17;20.05;;;14.20;88.90;;;;;;4986047;28;20430;-85
2021/10/15 09:42:32;;;;;;;26.50;19.63;;;14.20;88.90;;;;;;5000555;28;20081;-85
2021/10/15 09:45:15;;;;;;;29.30;19.23;;;14.20;89.00;;;;;;4986132;28;20054;-86
2021/10/15 09:47:42;;;;;;;25.00;19.05;;;14.30;89.10;;;;;;5003702;28;20034;-85
2021/10/15 09:50:09;;;;;;;26.42;17.67;;;14.20;89.20;;;;;;4985618;28;20051;-86
2021/10/15 09:52:50;;;;;;;15.63;11.25;;;14.10;89.30;;;;;;4988508;28;20069;-84
2021/10/15 09:55:31;;;;;;;13.50;8.23;;;14.10;89.20;;;;;;5000650;28;20056;-87
2021/10/15 09:58:10;;;;;;;13.93;7.95;;;14.00;88.80;;;;;;4988446;28;20625;-86
2021/10/15 10:00:37;;;;;;;10.32;6.45;;;14.10;88.90;;;;;;4987162;28;20038;-87
2021/10/15 10:03:03;;;;;;;8.35;4.10;;;14.20;88.70;;;;;;4989270;28;20045;-85
2021/10/15 10:05:30;;;;;;;7.68;3.22;;;14.20;87.50;;;;;;4983642;28;20093;-85
2021/10/15 10:07:56;;;;;;;10.10;3.28;;;14.10;88.00;;;;;;4984176;28;20035;-86
2021/10/15 10:10:25;;;;;;;7.55;2.95;;;14.10;88.10;;;;;;5001662;28;20049;-86
2021/10/15 10:15:43;;;;;;;6.95;2.20;;;14.20;87.80;;;;;;4988071;28;20034;-84
2021/10/15 10:18:39;;;;;;;7.72;2.55;;;14.10;87.80;;;;;;4994852;28;20490;-85
2021/10/15 10:21:20;;;;;;;4.80;1.98;;;14.10;87.80;;;;;;4999650;28;20449;-87
2021/10/15 10:23:53;;;;;;;7.47;2.55;;;13.80;88.20;;;;;;5010997;28;20039;-85
2021/10/15 10:26:22;;;;;;;11.60;2.92;;;13.90;88.30;;;;;;4981855;28;20042;-85
2021/10/15 10:29:18;;;;;;;6.45;3.03;;;14.00;88.20;;;;;;4990631;28;20106;-85
2021/10/15 10:31:44;;;;;;;7.18;3.33;;;14.10;88.40;;;;;;4982041;28;20034;-84
2021/10/15 10:34:16;;;;;;;9.30;3.30;;;14.30;87.50;;;;;;5007340;28;20030;-85
2021/10/15 10:36:42;;;;;;;9.50;3.17;;;14.40;87.20;;;;;;5002645;28;20125;-85
2021/10/15 10:39:20;;;;;;;6.65;2.72;;;14.50;86.20;;;;;;4995488;28;20058;-85
2021/10/15 10:42:18;;;;;;;6.88;2.90;;;14.40;84.80;;;;;;4982438;28;20100;-86
2021/10/15 10:44:50;;;;;;;9.40;3.53;;;14.40;84.80;;;;;;4980671;28;20121;-86
2021/10/15 10:47:20;;;;;;;7.57;3.67;;;14.40;84.90;;;;;;5003371;28;20101;-85
2021/10/15 10:50:08;;;;;;;11.68;3.85;;;14.40;84.90;;;;;;4986358;28;20045;-85
2021/10/15 10:52:46;;;;;;;8.38;4.07;;;14.60;84.30;;;;;;4983126;28;21276;-86
2021/10/15 10:55:42;;;;;;;9.68;4.70;;;14.60;83.60;;;;;;4996021;28;20058;-86
2021/10/15 10:58:35;;;;;;;11.43;2.67;;;14.60;83.30;;;;;;4992917;28;20046;-84
2021/10/15 11:01:18;;;;;;;10.48;3.20;;;14.30;81.30;;;;;;4982433;28;20117;-85
2021/10/15 11:03:44;;;;;;;11.50;3.30;;;14.40;81.90;;;;;;4983818;28;20081;-85
2021/10/15 11:06:10;;;;;;;8.48;3.05;;;14.50;82.40;;;;;;4985012;28;20070;-84
2021/10/15 11:08:36;;;;;;;12.80;3.33;;;14.60;81.90;;;;;;4989769;28;20043;-85
2021/10/15 11:11:22;;;;;;;8.50;3.65;;;14.70;82.30;;;;;;4985570;28;20030;-87
2021/10/15 11:13:48;;;;;;;8.27;3.45;;;14.80;82.10;;;;;;4985048;28;20050;-85
2021/10/15 11:16:25;;;;;;;8.95;3.05;;;14.70;81.20;;;;;;4987327;28;20039;-85
2021/10/15 11:18:52;;;;;;;11.77;3.38;;;14.80;81.00;;;;;;4989379;28;20164;-85
2021/10/15 11:21:20;;;;;;;9.80;3.10;;;15.00;81.30;;;;;;4981525;28;20043;-85
2021/10/15 11:23:46;;;;;;;8.88;2.65;;;15.10;80.10;;;;;;4982076;28;20039;-85
2021/10/15 11:26:12;;;;;;;10.70;3.03;;;15.10;79.90;;;;;;4977236;28;20430;-86
2021/10/15 11:28:37;;;;;;;10.45;2.47;;;15.00;79.90;;;;;;4983298;28;20046;-85
2021/10/15 11:31:07;;;;;;;10.02;2.72;;;15.10;79.80;;;;;;4988427;28;20085;-84
2021/10/15 11:33:36;;;;;;;8.27;2.15;;;15.20;79.20;;;;;;4987089;28;20370;-85
2021/10/15 11:36:02;;;;;;;11.07;2.10;;;15.30;77.90;;;;;;5000590;28;20034;-86
2021/10/15 11:38:28;;;;;;;8.75;2.42;;;15.20;77.90;;;;;;4989448;28;20052;-85
2021/10/15 11:41:12;;;;;;;10.10;2.00;;;15.30;78.10;;;;;;4982746;28;20509;-86
2021/10/15 11:43:41;;;;;;;11.07;2.50;;;15.40;77.00;;;;;;4983600;28;20198;-85
2021/10/15 11:46:09;;;;;;;11.07;2.38;;;15.30;76.90;;;;;;4988399;28;20031;-86
2021/10/15 11:48:41;;;;;;;10.10;2.47;;;15.40;77.00;;;;;;4994711;28;20081;-85
2021/10/15 11:51:23;;;;;;;8.45;2.42;;;15.40;77.30;;;;;;4983050;28;20046;-85
2021/10/15 11:53:52;;;;;;;14.10;2.72;;;15.50;77.30;;;;;;5006155;28;20529;-86
2021/10/15 11:56:23;;;;;;;13.60;2.70;;;15.60;76.30;;;;;;4986474;28;20502;-84
2021/10/15 11:58:50;;;;;;;11.30;2.70;;;15.80;76.00;;;;;;4988294;28;20121;-83
2021/10/15 12:01:21;;;;;;;9.88;2.67;;;15.80;74.20;;;;;;4992159;28;20039;-85
2021/10/15 12:03:52;;;;;;;9.70;2.75;;;15.80;75.30;;;;;;4979743;28;20062;-86
2021/10/15 12:06:25;;;;;;;13.52;2.92;;;15.80;74.80;;;;;;4986297;28;20046;-83
2021/10/15 12:08:57;;;;;;;11.30;2.63;;;15.80;75.10;;;;;;4983345;28;20045;-84
2021/10/15 12:11:51;;;;;;;8.35;1.70;;;15.70;74.40;;;;;;4985851;28;20047;-83
2021/10/15 12:14:19;;;;;;;10.18;2.95;;;15.50;75.40;;;;;;4978449;28;20113;-83
2021/10/15 12:17:10;;;;;;;9.23;2.70;;;15.60;76.50;;;;;;4989242;28;20037;-84
2021/10/15 12:19:46;;;;;;;11.15;2.30;;;15.80;76.20;;;;;;4987145;28;20042;-85
2021/10/15 12:22:16;;;;;;;10.60;3.13;;;15.70;74.70;;;;;;4989043;28;20452;-84
2021/10/15 12:24:50;;;;;;;12.30;4.15;;;15.80;75.40;;;;;;4992187;28;20058;-85
2021/10/15 12:27:42;;;;;;;11.20;3.50;;;15.70;75.20;;;;;;4982263;28;20059;-84
2021/10/15 12:30:22;;;;;;;12.13;2.13;;;15.70;72.40;;;;;;5000060;28;20066;-87
2021/10/15 12:32:48;;;;;;;9.55;2.35;;;15.80;71.90;;;;;;4986562;28;20401;-83
2021/10/15 12:35:14;;;;;;;12.65;3.25;;;15.90;71.30;;;;;;4986063;28;20473;-84
2021/10/15 12:37:49;;;;;;;13.73;3.42;;;15.90;71.10;;;;;;4989359;28;20270;-84
2021/10/15 12:40:33;;;;;;;12.35;2.90;;;16.00;70.60;;;;;;4985839;28;20341;-84
2021/10/15 12:43:14;;;;;;;11.27;3.80;;;16.10;70.30;;;;;;4985152;28;20050;-84
2021/10/15 12:45:49;;;;;;;11.65;2.58;;;16.20;69.60;;;;;;4977801;28;20035;-84
2021/10/15 12:48:23;;;;;;;10.07;3.05;;;16.20;68.70;;;;;;4969511;28;20389;-85
2021/10/15 12:51:11;;;;;;;13.85;3.85;;;16.10;69.30;;;;;;4978604;28;20030;-84
2021/10/15 12:53:45;;;;;;;16.15;3.20;;;16.00;69.70;;;;;;4988245;28;20038;-86
2021/10/15 12:56:15;;;;;;;11.68;3.17;;;15.90;70.30;;;;;;4985743;28;20037;-85
2021/10/15 12:58:50;;;;;;;12.45;2.85;;;16.00;70.70;;;;;;5004320;28;20425;-83
2021/10/15 13:01:21;;;;;;;11.07;2.58;;;16.00;70.60;;;;;;4990937;28;20046;-84